Time;durP1;ratioP1;P1;durP2;ratioP2;P2;SDS_P1;SDS_P2;PMS_P1;PMS_P2;Temp;Humidity;BMP_temperature;BMP_pressure;BME280_temperature;BME280_humidity;BME280_pressure;Samples;Min_cycle;Max_cycle;Signal;HPM_P1;HPM_P2
2021/12/30 00:00:12;;;;;;;12.63;6.93;;;;;;;;;;5098723;28;20505;-72
2021/12/30 00:02:50;;;;;;;12.63;7.10;;;;;;;;;;5120336;28;20543;-72
2021/12/30 00:05:20;;;;;;;10.03;6.73;;;;;;;;;;5119735;27;20451;-72
2021/12/30 00:07:50;;;;;;;9.53;6.60;;;;;;;;;;5115570;28;20586;-71
2021/12/30 00:10:22;;;;;;;18.00;9.30;;;;;;;;;;5120858;27;20493;-73
2021/12/30 00:13:04;;;;;;;12.70;6.70;;;;;;;;;;5119983;27;20841;-71
2021/12/30 00:15:45;;;;;;;12.73;6.93;;;;;;;;;;5121165;27;20458;-72
2021/12/30 00:18:32;;;;;;;;;;;;;;;;;;;;;
2021/12/30 00:21:15;;;;;;;10.00;7.27;;;;;;;;;;5082994;28;20462;-73
2021/12/30 00:23:51;;;;;;;12.23;6.97;;;;;;;;;;5120338;27;20450;-72
2021/12/30 00:26:22;;;;;;;10.70;6.30;;;;;;;;;;5119053;28;20457;-73
2021/12/30 00:28:59;;;;;;;9.23;5.87;;;;;;;;;;5119737;28;20935;-74
2021/12/30 00:31:30;;;;;;;11.17;6.07;;;;;;;;;;5107124;28;20529;-72
2021/12/30 00:34:00;;;;;;;8.27;5.77;;;;;;;;;;5119823;28;20461;-73
2021/12/30 00:36:28;;;;;;;10.03;6.23;;;;;;;;;;5113463;28;20463;-72
2021/12/30 00:38:56;;;;;;;10.10;5.60;;;;;;;;;;5100385;28;20464;-73
2021/12/30 00:41:24;;;;;;;10.40;7.07;;;;;;;;;;5100736;28;20464;-73
2021/12/30 00:43:54;;;;;;;7.97;5.40;;;;;;;;;;5112196;28;20878;-73
2021/12/30 00:46:38;;;;;;;10.67;6.10;;;;;;;;;;5121772;27;20455;-73
2021/12/30 00:49:13;;;;;;;8.67;6.00;;;;;;;;;;5120716;28;20862;-72
2021/12/30 00:51:41;;;;;;;9.30;7.53;;;;;;;;;;5121839;27;20490;-73
2021/12/30 00:54:11;;;;;;;12.33;7.27;;;;;;;;;;5123388;28;20640;-73
2021/12/30 00:56:38;;;;;;;12.90;6.43;;;;;;;;;;5122805;28;20516;-73
2021/12/30 00:59:08;;;;;;;7.53;4.97;;;;;;;;;;5121595;27;20450;-73
2021/12/30 01:01:36;;;;;;;12.70;7.33;;;;;;;;;;5116747;28;20482;-72
2021/12/30 01:04:15;;;;;;;11.97;6.93;;;;;;;;;;5121193;27;20477;-72
2021/12/30 01:06:43;;;;;;;16.97;8.70;;;;;;;;;;5122925;27;20533;-73
2021/12/30 01:09:13;;;;;;;22.57;10.10;;;;;;;;;;5120888;27;20455;-73
2021/12/30 01:11:40;;;;;;;16.27;8.67;;;;;;;;;;5122667;27;20493;-73
2021/12/30 01:14:16;;;;;;;25.80;11.93;;;;;;;;;;5122353;27;20451;-72
2021/12/30 01:16:48;;;;;;;16.63;10.60;;;;;;;;;;5120233;28;20844;-73
2021/12/30 01:19:23;;;;;;;15.07;8.97;;;;;;;;;;5122418;28;20450;-73
2021/12/30 01:21:52;;;;;;;15.50;9.90;;;;;;;;;;5121258;27;20473;-72
2021/12/30 01:24:19;;;;;;;15.80;10.37;;;;;;;;;;5121930;27;20882;-72
2021/12/30 01:26:47;;;;;;;20.23;10.97;;;;;;;;;;5113636;27;20450;-72
2021/12/30 01:29:16;;;;;;;19.20;10.80;;;;;;;;;;5121905;27;20447;-72
2021/12/30 01:31:43;;;;;;;24.23;11.60;;;;;;;;;;5117447;27;20475;-72
2021/12/30 01:34:12;;;;;;;22.40;12.00;;;;;;;;;;5111092;27;20446;-72
2021/12/30 01:36:39;;;;;;;19.63;11.30;;;;;;;;;;5115516;27;20579;-72
2021/12/30 01:39:07;;;;;;;22.77;11.47;;;;;;;;;;5117846;27;20451;-72
2021/12/30 01:41:35;;;;;;;32.53;13.83;;;;;;;;;;5121575;27;20474;-72
2021/12/30 01:44:03;;;;;;;26.83;12.67;;;;;;;;;;5120456;27;20462;-72
2021/12/30 01:46:40;;;;;;;23.23;10.27;;;;;;;;;;5121559;27;20757;-73
2021/12/30 01:49:08;;;;;;;22.63;11.70;;;;;;;;;;5121202;27;20454;-72
2021/12/30 01:51:35;;;;;;;26.83;13.50;;;;;;;;;;5116462;27;20486;-72
2021/12/30 01:54:03;;;;;;;30.30;14.90;;;;;;;;;;5120788;27;20515;-72
2021/12/30 01:56:31;;;;;;;29.70;13.93;;;;;;;;;;5120864;27;20462;-72
2021/12/30 01:59:00;;;;;;;23.37;13.40;;;;;;;;;;5120911;27;20857;-72
2021/12/30 02:01:34;;;;;;;27.80;13.37;;;;;;;;;;5118360;27;20496;-72
2021/12/30 02:04:03;;;;;;;25.70;12.80;;;;;;;;;;5120383;27;20493;-72
2021/12/30 02:06:31;;;;;;;29.17;13.93;;;;;;;;;;5120301;27;20754;-72
2021/12/30 02:09:00;;;;;;;31.93;15.00;;;;;;;;;;5110467;27;20481;-72
2021/12/30 02:11:28;;;;;;;30.03;13.93;;;;;;;;;;5120699;27;20770;-72
2021/12/30 02:13:56;;;;;;;36.50;10.70;;;;;;;;;;5120993;27;20454;-72
2021/12/30 02:16:23;;;;;;;24.97;14.03;;;;;;;;;;5120803;27;20735;-73
2021/12/30 02:18:52;;;;;;;26.00;12.83;;;;;;;;;;5104529;28;20463;-72
2021/12/30 02:21:21;;;;;;;30.60;16.87;;;;;;;;;;5116110;27;20799;-72
2021/12/30 02:23:49;;;;;;;29.87;14.77;;;;;;;;;;5121377;27;20565;-72
2021/12/30 02:26:18;;;;;;;25.40;14.80;;;;;;;;;;5119593;27;20455;-72
2021/12/30 02:28:47;;;;;;;36.17;14.87;;;;;;;;;;5117150;28;20447;-72
2021/12/30 02:31:16;;;;;;;27.27;15.67;;;;;;;;;;5120536;27;20910;-72
2021/12/30 02:33:46;;;;;;;29.27;12.97;;;;;;;;;;5120092;27;20446;-72
2021/12/30 02:36:19;;;;;;;26.63;15.43;;;;;;;;;;5121705;27;20869;-72
2021/12/30 02:38:49;;;;;;;30.93;14.87;;;;;;;;;;5121647;27;20462;-72
2021/12/30 02:41:19;;;;;;;24.30;11.50;;;;;;;;;;5118794;27;20449;-72
2021/12/30 02:43:48;;;;;;;28.03;15.93;;;;;;;;;;5114779;28;20466;-72
2021/12/30 02:46:17;;;;;;;34.20;17.30;;;;;;;;;;5111215;27;20483;-72
2021/12/30 02:48:45;;;;;;;37.67;15.60;;;;;;;;;;5120907;27;20757;-73
2021/12/30 02:51:14;;;;;;;24.30;14.83;;;;;;;;;;5118971;27;20833;-72
2021/12/30 02:53:42;;;;;;;26.77;14.03;;;;;;;;;;5120025;27;20550;-72
2021/12/30 02:56:11;;;;;;;36.97;15.77;;;;;;;;;;5120053;27;20482;-72
2021/12/30 02:58:38;;;;;;;33.90;15.07;;;;;;;;;;5118510;27;20485;-72
2021/12/30 03:01:08;;;;;;;28.73;12.63;;;;;;;;;;5119798;28;20746;-72
2021/12/30 03:03:36;;;;;;;21.80;13.97;;;;;;;;;;5114796;27;20450;-72
2021/12/30 03:06:12;;;;;;;26.73;12.70;;;;;;;;;;5119843;27;20445;-72
2021/12/30 03:08:40;;;;;;;31.77;14.30;;;;;;;;;;5105886;28;20447;-72
2021/12/30 03:11:08;;;;;;;35.13;13.60;;;;;;;;;;5103972;28;20479;-72
2021/12/30 03:13:41;;;;;;;26.97;12.73;;;;;;;;;;5108310;28;20463;-72
2021/12/30 03:16:11;;;;;;;19.67;10.83;;;;;;;;;;5099122;28;20458;-72
2021/12/30 03:18:39;;;;;;;17.73;11.50;;;;;;;;;;5112040;28;20459;-72
2021/12/30 03:21:08;;;;;;;18.90;9.57;;;;;;;;;;5118649;27;20571;-72
2021/12/30 03:23:38;;;;;;;28.03;11.20;;;;;;;;;;5103411;27;20471;-72
2021/12/30 03:26:07;;;;;;;27.97;13.47;;;;;;;;;;5114292;27;20457;-72
2021/12/30 03:28:39;;;;;;;24.87;10.53;;;;;;;;;;5116088;27;20518;-73
2021/12/30 03:31:09;;;;;;;20.33;10.70;;;;;;;;;;5119638;27;20483;-72
2021/12/30 03:33:37;;;;;;;22.10;10.40;;;;;;;;;;5116655;27;20862;-72
2021/12/30 03:36:06;;;;;;;24.20;10.10;;;;;;;;;;5114361;28;20885;-72
2021/12/30 03:38:35;;;;;;;22.17;8.60;;;;;;;;;;5119190;28;20901;-72
2021/12/30 03:41:03;;;;;;;30.33;11.80;;;;;;;;;;5118721;27;20455;-72
2021/12/30 03:43:30;;;;;;;32.63;10.67;;;;;;;;;;5116105;27;20467;-72
2021/12/30 03:46:00;;;;;;;26.00;10.90;;;;;;;;;;5115062;28;20451;-72
2021/12/30 03:48:33;;;;;;;28.00;13.10;;;;;;;;;;5119466;27;20451;-72
2021/12/30 03:51:04;;;;;;;18.57;7.33;;;;;;;;;;5108501;28;20523;-72
2021/12/30 03:53:37;;;;;;;29.03;12.00;;;;;;;;;;5098979;28;20467;-72
2021/12/30 03:56:06;;;;;;;30.97;13.33;;;;;;;;;;5104169;28;20485;-72
2021/12/30 03:58:33;;;;;;;21.87;9.87;;;;;;;;;;5116456;28;20746;-72
2021/12/30 04:01:03;;;;;;;22.23;10.07;;;;;;;;;;5112337;28;20456;-73
2021/12/30 04:03:31;;;;;;;24.90;10.90;;;;;;;;;;5098250;28;20452;-72
2021/12/30 04:05:59;;;;;;;27.47;11.07;;;;;;;;;;5118411;27;20739;-72
2021/12/30 04:08:26;;;;;;;28.73;12.13;;;;;;;;;;5108203;27;20867;-73
2021/12/30 04:10:54;;;;;;;26.20;11.20;;;;;;;;;;5101561;28;20462;-72
2021/12/30 04:13:23;;;;;;;24.90;10.83;;;;;;;;;;5117283;27;20631;-72
2021/12/30 04:15:51;;;;;;;15.13;6.77;;;;;;;;;;5117527;28;20449;-72
2021/12/30 04:18:20;;;;;;;22.73;11.27;;;;;;;;;;5117534;28;20489;-72
2021/12/30 04:20:47;;;;;;;23.97;10.70;;;;;;;;;;5116836;28;20472;-72
2021/12/30 04:23:15;;;;;;;33.57;12.40;;;;;;;;;;5109263;28;20487;-72
2021/12/30 04:25:43;;;;;;;30.00;12.50;;;;;;;;;;5101039;28;20448;-72
2021/12/30 04:28:11;;;;;;;20.57;9.27;;;;;;;;;;5117550;27;20486;-73
2021/12/30 04:30:39;;;;;;;27.43;11.93;;;;;;;;;;5116750;28;20451;-72
2021/12/30 04:33:10;;;;;;;23.40;11.37;;;;;;;;;;5118058;27;20497;-72
2021/12/30 04:35:39;;;;;;;27.57;11.47;;;;;;;;;;5118344;28;20461;-71
2021/12/30 04:38:06;;;;;;;22.80;11.37;;;;;;;;;;5113284;27;20459;-71
2021/12/30 04:40:34;;;;;;;23.33;9.67;;;;;;;;;;5098996;28;20440;-72
2021/12/30 04:43:02;;;;;;;23.23;10.33;;;;;;;;;;5115595;27;20494;-72
2021/12/30 04:45:30;;;;;;;28.03;11.37;;;;;;;;;;5118949;27;20501;-72
2021/12/30 04:47:57;;;;;;;22.90;11.10;;;;;;;;;;5117057;27;20470;-72
2021/12/30 04:50:25;;;;;;;19.33;9.43;;;;;;;;;;5118413;27;20750;-72
2021/12/30 04:52:56;;;;;;;34.67;11.97;;;;;;;;;;5119284;27;20911;-72
2021/12/30 04:55:23;;;;;;;27.17;11.70;;;;;;;;;;5117991;27;20505;-72
2021/12/30 04:57:51;;;;;;;24.10;9.90;;;;;;;;;;5115036;28;20886;-72
2021/12/30 05:00:19;;;;;;;23.90;9.90;;;;;;;;;;5117201;28;20454;-72
2021/12/30 05:05:31;;;;;;;24.07;11.80;;;;;;;;;;5110181;28;20514;-72
2021/12/30 05:08:00;;;;;;;24.37;10.70;;;;;;;;;;5118516;28;20469;-72
2021/12/30 05:10:28;;;;;;;33.30;11.10;;;;;;;;;;5116685;28;20447;-72
2021/12/30 05:12:56;;;;;;;20.77;11.70;;;;;;;;;;5117578;28;20555;-72
2021/12/30 05:15:24;;;;;;;23.23;9.67;;;;;;;;;;5117224;28;20555;-72
2021/12/30 05:17:51;;;;;;;24.20;10.27;;;;;;;;;;5117262;28;20454;-72
2021/12/30 05:20:19;;;;;;;20.10;8.63;;;;;;;;;;5117252;28;20521;-72
2021/12/30 05:22:47;;;;;;;21.53;9.67;;;;;;;;;;5116991;28;20473;-72
2021/12/30 05:25:18;;;;;;;25.50;9.50;;;;;;;;;;5117131;28;20487;-72
2021/12/30 05:27:45;;;;;;;34.03;8.87;;;;;;;;;;5116509;28;20480;-72
2021/12/30 05:30:14;;;;;;;21.30;8.97;;;;;;;;;;5117445;27;20912;-72
2021/12/30 05:32:42;;;;;;;26.83;10.03;;;;;;;;;;5117700;27;20507;-72
2021/12/30 05:35:11;;;;;;;20.87;10.37;;;;;;;;;;5117235;28;20983;-72
2021/12/30 05:37:40;;;;;;;23.90;10.60;;;;;;;;;;5117492;27;20523;-72
2021/12/30 05:40:09;;;;;;;19.20;8.70;;;;;;;;;;5110494;27;20463;-71
2021/12/30 05:42:38;;;;;;;24.03;10.30;;;;;;;;;;5114405;27;20459;-72
2021/12/30 05:45:07;;;;;;;29.33;8.33;;;;;;;;;;5107522;28;20523;-72
2021/12/30 05:47:36;;;;;;;28.40;10.03;;;;;;;;;;5120363;27;20959;-71
2021/12/30 05:50:05;;;;;;;21.63;9.10;;;;;;;;;;5121667;27;20516;-72
2021/12/30 05:52:33;;;;;;;17.90;7.20;;;;;;;;;;5112260;28;20483;-72
2021/12/30 05:55:00;;;;;;;29.47;9.77;;;;;;;;;;5100516;28;20451;-71
2021/12/30 05:57:29;;;;;;;20.67;8.37;;;;;;;;;;5116819;27;20539;-72
2021/12/30 05:59:58;;;;;;;12.83;6.53;;;;;;;;;;5114485;27;20455;-72
2021/12/30 06:02:26;;;;;;;29.47;8.73;;;;;;;;;;5117817;28;20531;-72
2021/12/30 06:04:54;;;;;;;27.23;9.27;;;;;;;;;;5103607;27;20447;-72
2021/12/30 06:07:21;;;;;;;27.20;9.50;;;;;;;;;;5118490;27;20554;-72
2021/12/30 06:09:49;;;;;;;40.23;9.67;;;;;;;;;;5110794;27;20456;-72
2021/12/30 06:12:23;;;;;;;28.20;8.63;;;;;;;;;;5105864;27;20483;-72
2021/12/30 06:14:51;;;;;;;28.20;8.63;;;;;;;;;;5120482;27;20452;-72
2021/12/30 06:17:20;;;;;;;26.90;9.17;;;;;;;;;;5119854;27;20446;-72
2021/12/30 06:19:48;;;;;;;21.70;7.43;;;;;;;;;;5119918;27;20469;-72
2021/12/30 06:22:18;;;;;;;21.00;7.53;;;;;;;;;;5118646;28;20748;-72
2021/12/30 06:24:45;;;;;;;21.33;7.43;;;;;;;;;;5119101;27;20887;-73
2021/12/30 06:27:13;;;;;;;28.47;7.83;;;;;;;;;;5119231;27;20463;-72
2021/12/30 06:29:41;;;;;;;39.63;9.57;;;;;;;;;;5119099;27;20455;-73
2021/12/30 06:32:09;;;;;;;28.27;8.90;;;;;;;;;;5120106;27;20557;-72
2021/12/30 06:34:38;;;;;;;32.13;8.97;;;;;;;;;;5118525;27;20454;-72
2021/12/30 06:37:09;;;;;;;20.50;7.57;;;;;;;;;;5107895;28;20499;-72
2021/12/30 06:39:37;;;;;;;31.43;9.90;;;;;;;;;;5119636;27;20455;-72
2021/12/30 06:42:05;;;;;;;28.37;10.40;;;;;;;;;;5119904;28;20508;-72
2021/12/30 06:44:33;;;;;;;26.30;8.37;;;;;;;;;;5120109;27;20480;-73
2021/12/30 06:47:03;;;;;;;31.50;10.40;;;;;;;;;;5118555;27;20550;-73
2021/12/30 06:49:36;;;;;;;21.37;7.73;;;;;;;;;;5119788;27;20455;-72
2021/12/30 06:52:06;;;;;;;29.37;10.00;;;;;;;;;;5120788;27;20527;-72
2021/12/30 06:54:34;;;;;;;24.70;9.13;;;;;;;;;;5119416;27;20653;-72
2021/12/30 06:57:03;;;;;;;24.00;9.33;;;;;;;;;;5120749;27;20535;-72
2021/12/30 06:59:47;;;;;;;17.93;6.33;;;;;;;;;;5119782;27;20478;-72
2021/12/30 07:02:16;;;;;;;28.93;8.50;;;;;;;;;;5120650;27;20817;-71
2021/12/30 07:04:45;;;;;;;24.40;9.03;;;;;;;;;;5121026;27;20451;-72
2021/12/30 07:07:23;;;;;;;18.10;7.23;;;;;;;;;;5118685;27;20943;-72
2021/12/30 07:09:51;;;;;;;17.90;8.30;;;;;;;;;;5119068;27;20501;-72
2021/12/30 07:12:19;;;;;;;32.77;9.80;;;;;;;;;;5119547;27;20482;-72
2021/12/30 07:14:47;;;;;;;30.07;8.97;;;;;;;;;;5118945;27;20466;-72
2021/12/30 07:17:14;;;;;;;27.43;9.30;;;;;;;;;;5106141;27;20440;-72
2021/12/30 07:19:42;;;;;;;30.27;10.27;;;;;;;;;;5110875;28;20759;-72
2021/12/30 07:22:10;;;;;;;27.53;9.10;;;;;;;;;;5118256;27;20534;-72
2021/12/30 07:24:39;;;;;;;24.53;9.40;;;;;;;;;;5106010;27;20451;-72
2021/12/30 07:27:07;;;;;;;27.07;9.30;;;;;;;;;;5117937;27;20500;-72
2021/12/30 07:29:34;;;;;;;25.33;8.03;;;;;;;;;;5118469;27;20454;-72
2021/12/30 07:32:03;;;;;;;37.23;10.03;;;;;;;;;;5118138;28;20458;-72
2021/12/30 07:34:30;;;;;;;21.77;8.60;;;;;;;;;;5097586;28;20460;-73
2021/12/30 07:36:58;;;;;;;22.93;10.00;;;;;;;;;;5111513;27;20504;-72
2021/12/30 07:39:26;;;;;;;22.73;8.00;;;;;;;;;;5118829;27;20775;-72
2021/12/30 07:41:55;;;;;;;25.17;6.93;;;;;;;;;;5109942;28;20480;-72
2021/12/30 07:44:23;;;;;;;21.90;8.53;;;;;;;;;;5118816;27;20517;-72
2021/12/30 07:46:50;;;;;;;25.77;8.90;;;;;;;;;;5117334;27;20450;-73
2021/12/30 07:49:18;;;;;;;31.80;8.63;;;;;;;;;;5117620;27;20462;-72
2021/12/30 07:51:46;;;;;;;23.73;8.90;;;;;;;;;;5118433;27;20442;-73
2021/12/30 07:54:14;;;;;;;29.83;8.73;;;;;;;;;;5118103;27;20481;-73
2021/12/30 07:56:43;;;;;;;23.37;8.27;;;;;;;;;;5118001;28;20513;-73
2021/12/30 07:59:12;;;;;;;24.47;8.53;;;;;;;;;;5118450;27;20470;-73
2021/12/30 08:01:40;;;;;;;22.57;8.00;;;;;;;;;;5117097;27;20451;-73
2021/12/30 08:04:08;;;;;;;28.83;8.43;;;;;;;;;;5118308;27;20535;-72
2021/12/30 08:06:35;;;;;;;22.47;8.07;;;;;;;;;;5117859;27;20511;-72
2021/12/30 08:09:03;;;;;;;25.30;10.00;;;;;;;;;;5117457;27;20781;-73
2021/12/30 08:11:31;;;;;;;34.80;10.13;;;;;;;;;;5117608;27;20745;-72
2021/12/30 08:13:59;;;;;;;19.00;8.07;;;;;;;;;;5117053;28;20479;-73
2021/12/30 08:16:29;;;;;;;27.50;9.30;;;;;;;;;;5118137;27;20459;-72
2021/12/30 08:18:57;;;;;;;30.40;9.33;;;;;;;;;;5118525;28;20454;-72
2021/12/30 08:21:25;;;;;;;41.30;11.23;;;;;;;;;;5116468;27;20458;-72
2021/12/30 08:23:53;;;;;;;21.53;8.00;;;;;;;;;;5117616;27;20535;-72
2021/12/30 08:26:22;;;;;;;30.13;10.20;;;;;;;;;;5115488;28;20451;-74
2021/12/30 08:28:50;;;;;;;25.93;9.80;;;;;;;;;;5117629;27;20498;-71
2021/12/30 08:31:18;;;;;;;27.20;9.90;;;;;;;;;;5117026;27;20459;-72
2021/12/30 08:33:47;;;;;;;24.93;9.00;;;;;;;;;;5116733;27;20490;-72
2021/12/30 08:36:18;;;;;;;24.83;7.67;;;;;;;;;;5118010;27;21056;-72
2021/12/30 08:38:45;;;;;;;29.33;10.47;;;;;;;;;;5117213;27;20505;-72
2021/12/30 08:41:16;;;;;;;28.53;9.33;;;;;;;;;;5118089;27;20458;-72
2021/12/30 08:43:54;;;;;;;34.97;9.90;;;;;;;;;;5114949;28;20839;-73
2021/12/30 08:46:23;;;;;;;30.53;12.80;;;;;;;;;;5092047;28;20446;-72
2021/12/30 08:48:54;;;;;;;25.60;10.27;;;;;;;;;;5116545;28;20478;-73
2021/12/30 08:51:22;;;;;;;27.00;10.67;;;;;;;;;;5115679;28;20462;-72
2021/12/30 08:53:50;;;;;;;18.33;8.97;;;;;;;;;;5116197;28;20483;-72
2021/12/30 08:56:19;;;;;;;20.07;9.53;;;;;;;;;;5117895;27;20507;-73
2021/12/30 08:58:47;;;;;;;32.63;11.80;;;;;;;;;;5117610;28;20537;-72
2021/12/30 09:01:15;;;;;;;29.53;10.10;;;;;;;;;;5116392;27;20458;-72
2021/12/30 09:03:43;;;;;;;28.53;10.27;;;;;;;;;;5117625;27;20470;-72
2021/12/30 09:06:15;;;;;;;35.47;11.80;;;;;;;;;;5116612;27;20499;-72
2021/12/30 09:08:45;;;;;;;33.23;10.73;;;;;;;;;;5116306;28;20565;-73
2021/12/30 09:11:17;;;;;;;26.30;9.13;;;;;;;;;;5116229;27;20469;-73
2021/12/30 09:13:45;;;;;;;32.00;10.77;;;;;;;;;;5120038;27;20486;-73
2021/12/30 09:16:13;;;;;;;29.23;9.70;;;;;;;;;;5120530;27;20468;-72
2021/12/30 09:18:40;;;;;;;20.63;11.20;;;;;;;;;;5120422;27;20446;-72
2021/12/30 09:21:08;;;;;;;32.60;10.57;;;;;;;;;;5121172;27;20465;-72
2021/12/30 09:23:37;;;;;;;32.73;10.70;;;;;;;;;;5121099;27;20527;-72
2021/12/30 09:26:05;;;;;;;31.33;9.70;;;;;;;;;;5121300;27;20451;-72
2021/12/30 09:28:36;;;;;;;25.20;9.27;;;;;;;;;;5118568;27;20854;-73
2021/12/30 09:31:04;;;;;;;41.63;10.23;;;;;;;;;;5115582;27;20746;-72
2021/12/30 09:33:36;;;;;;;28.57;11.20;;;;;;;;;;5116320;27;20490;-73
2021/12/30 09:36:05;;;;;;;30.57;10.33;;;;;;;;;;5120518;27;20470;-75
2021/12/30 09:38:35;;;;;;;28.67;9.97;;;;;;;;;;5101521;28;20795;-74
2021/12/30 09:41:10;;;;;;;26.60;11.03;;;;;;;;;;5100385;28;20458;-74
2021/12/30 09:43:43;;;;;;;27.97;9.80;;;;;;;;;;5100132;28;20470;-74
2021/12/30 09:46:25;;;;;;;42.83;10.70;;;;;;;;;;5107924;28;20500;-74
2021/12/30 09:49:08;;;;;;;24.40;9.97;;;;;;;;;;5115101;28;20527;-73
2021/12/30 09:51:37;;;;;;;30.13;9.53;;;;;;;;;;5103070;28;21082;-73
2021/12/30 09:54:10;;;;;;;21.90;9.53;;;;;;;;;;5113774;27;20858;-74
2021/12/30 09:56:45;;;;;;;31.00;11.37;;;;;;;;;;5115932;27;20534;-73
2021/12/30 09:59:19;;;;;;;33.73;12.10;;;;;;;;;;5129557;27;20454;-72
2021/12/30 10:01:51;;;;;;;40.40;10.33;;;;;;;;;;5119523;27;20789;-73
2021/12/30 10:04:27;;;;;;;45.60;11.93;;;;;;;;;;5119749;27;20882;-72
2021/12/30 10:06:55;;;;;;;28.23;10.87;;;;;;;;;;5119277;27;20455;-73
2021/12/30 10:09:29;;;;;;;35.07;11.10;;;;;;;;;;5114085;28;20825;-74
2021/12/30 10:12:05;;;;;;;31.83;11.10;;;;;;;;;;5104292;28;20454;-73
2021/12/30 10:14:37;;;;;;;27.13;12.37;;;;;;;;;;5098152;28;20782;-73
2021/12/30 10:17:26;;;;;;;32.07;13.77;;;;;;;;;;5109415;28;20454;-74
2021/12/30 10:20:00;;;;;;;27.77;11.37;;;;;;;;;;5112556;27;20557;-75
2021/12/30 10:22:30;;;;;;;25.50;11.50;;;;;;;;;;5100333;28;20480;-73
2021/12/30 10:25:00;;;;;;;27.90;11.17;;;;;;;;;;5111785;28;20446;-72
2021/12/30 10:27:38;;;;;;;27.10;9.93;;;;;;;;;;5109293;27;20447;-73
2021/12/30 10:30:12;;;;;;;30.67;12.40;;;;;;;;;;5117307;27;20454;-72
2021/12/30 10:32:40;;;;;;;23.93;12.10;;;;;;;;;;5140422;27;20687;-74
2021/12/30 10:35:10;;;;;;;28.60;11.93;;;;;;;;;;5135053;27;20573;-74
2021/12/30 10:37:40;;;;;;;19.37;9.90;;;;;;;;;;5106391;28;20443;-74
2021/12/30 10:40:25;;;;;;;30.67;11.30;;;;;;;;;;5099760;28;20535;-73
2021/12/30 10:43:20;;;;;;;19.70;9.80;;;;;;;;;;5106393;27;20440;-73
2021/12/30 10:46:05;;;;;;;22.80;10.20;;;;;;;;;;5116913;28;20831;-73
2021/12/30 10:48:33;;;;;;;26.47;12.37;;;;;;;;;;5119196;27;20853;-73
2021/12/30 10:51:13;;;;;;;25.60;11.20;;;;;;;;;;5114205;28;20726;-73
2021/12/30 10:53:42;;;;;;;19.37;9.03;;;;;;;;;;5110102;28;20565;-73
2021/12/30 10:56:27;;;;;;;16.30;7.77;;;;;;;;;;5117726;27;20809;-73
2021/12/30 10:59:17;;;;;;;22.87;10.30;;;;;;;;;;5117340;27;20519;-74
2021/12/30 11:01:53;;;;;;;22.63;11.17;;;;;;;;;;5117832;27;20465;-72
2021/12/30 11:04:35;;;;;;;20.13;8.80;;;;;;;;;;5114704;27;20553;-73
2021/12/30 11:10:15;;;;;;;21.20;8.83;;;;;;;;;;5117476;27;20446;-74
2021/12/30 11:12:47;;;;;;;16.30;9.00;;;;;;;;;;5110486;27;20467;-73
2021/12/30 11:15:26;;;;;;;20.03;8.30;;;;;;;;;;5116805;27;20490;-74
2021/12/30 11:18:07;;;;;;;14.33;7.10;;;;;;;;;;5116739;27;20501;-74
2021/12/30 11:20:39;;;;;;;10.20;7.10;;;;;;;;;;5117815;28;20450;-75
2021/12/30 11:23:07;;;;;;;19.07;11.00;;;;;;;;;;5117449;27;20541;-73
2021/12/30 11:25:35;;;;;;;32.23;18.33;;;;;;;;;;5117460;27;20866;-74
2021/12/30 11:28:07;;;;;;;29.23;14.20;;;;;;;;;;5117236;27;20557;-75
2021/12/30 11:30:36;;;;;;;17.80;12.10;;;;;;;;;;5117189;27;20455;-74
2021/12/30 11:33:06;;;;;;;13.67;7.70;;;;;;;;;;5112759;27;20551;-74
2021/12/30 11:35:34;;;;;;;14.17;7.60;;;;;;;;;;5110257;28;20569;-74
2021/12/30 11:38:07;;;;;;;10.70;6.33;;;;;;;;;;5116871;27;20459;-74
2021/12/30 11:40:35;;;;;;;8.40;6.10;;;;;;;;;;5101677;28;20452;-74
2021/12/30 11:43:10;;;;;;;7.33;4.73;;;;;;;;;;5104203;28;20458;-73
2021/12/30 11:45:44;;;;;;;10.50;7.57;;;;;;;;;;5117139;28;20647;-74
2021/12/30 11:48:25;;;;;;;16.70;9.40;;;;;;;;;;5116152;27;20455;-74
2021/12/30 11:51:02;;;;;;;13.73;6.47;;;;;;;;;;5111472;27;20824;-74
2021/12/30 11:53:33;;;;;;;11.20;7.17;;;;;;;;;;5097372;28;20463;-73
2021/12/30 11:56:11;;;;;;;9.30;5.50;;;;;;;;;;5106347;28;20458;-73
2021/12/30 11:58:51;;;;;;;7.43;4.80;;;;;;;;;;5116248;27;20573;-74
2021/12/30 12:02:10;;;;;;;;;;;;;;;;;;;;;
2021/12/30 12:04:41;;;;;;;7.90;4.50;;;;;;;;;;5020798;28;20469;-73
2021/12/30 12:07:15;;;;;;;5.70;3.30;;;;;;;;;;5029425;28;20479;-73
2021/12/30 12:09:51;;;;;;;6.73;4.47;;;;;;;;;;5034360;28;20812;-73
2021/12/30 12:12:35;;;;;;;6.23;4.83;;;;;;;;;;5034158;28;20468;-73
2021/12/30 12:15:05;;;;;;;2.97;2.23;;;;;;;;;;5097801;27;20564;-75
2021/12/30 12:17:35;;;;;;;4.10;2.80;;;;;;;;;;5110652;27;20455;-73
2021/12/30 12:20:15;;;;;;;5.20;3.30;;;;;;;;;;5116315;28;20457;-74
2021/12/30 12:22:43;;;;;;;6.03;4.30;;;;;;;;;;5117157;27;20451;-73
2021/12/30 12:25:20;;;;;;;5.40;2.20;;;;;;;;;;5116395;28;20454;-74
2021/12/30 12:27:51;;;;;;;6.20;3.73;;;;;;;;;;5117428;28;20506;-73
2021/12/30 12:30:23;;;;;;;3.83;2.40;;;;;;;;;;5117441;28;20450;-73
2021/12/30 12:32:51;;;;;;;5.47;3.27;;;;;;;;;;5116823;28;20454;-71
2021/12/30 12:35:36;;;;;;;3.57;2.80;;;;;;;;;;5116705;28;20474;-71
2021/12/30 12:38:09;;;;;;;4.57;2.97;;;;;;;;;;5119161;27;20863;-73
2021/12/30 12:40:39;;;;;;;7.63;3.50;;;;;;;;;;5098308;28;20466;-73
2021/12/30 12:43:23;;;;;;;9.97;3.37;;;;;;;;;;5116930;28;20465;-72
2021/12/30 12:45:58;;;;;;;2.17;1.37;;;;;;;;;;5109300;27;20555;-72
2021/12/30 12:48:27;;;;;;;6.53;2.80;;;;;;;;;;5113562;27;20443;-72
2021/12/30 12:50:56;;;;;;;2.27;1.40;;;;;;;;;;5120532;27;20541;-72
2021/12/30 12:53:41;;;;;;;6.07;4.27;;;;;;;;;;5115939;28;20451;-72
2021/12/30 12:56:26;;;;;;;4.30;2.53;;;;;;;;;;5116763;27;20442;-73
2021/12/30 12:58:58;;;;;;;3.30;2.50;;;;;;;;;;5117606;27;20462;-72
2021/12/30 13:01:31;;;;;;;4.57;2.17;;;;;;;;;;5115020;27;20603;-73
2021/12/30 13:04:06;;;;;;;3.67;1.93;;;;;;;;;;5119270;27;20458;-73
2021/12/30 13:06:41;;;;;;;1.77;1.33;;;;;;;;;;5126098;27;20462;-72
2021/12/30 13:09:13;;;;;;;3.20;2.40;;;;;;;;;;5126963;27;20515;-72
2021/12/30 13:11:42;;;;;;;2.67;1.83;;;;;;;;;;5100835;28;20536;-72
2021/12/30 13:14:18;;;;;;;2.97;1.70;;;;;;;;;;5110203;27;21156;-73
2021/12/30 13:16:46;;;;;;;1.63;1.07;;;;;;;;;;5101841;28;20456;-73
2021/12/30 13:19:15;;;;;;;4.83;3.87;;;;;;;;;;5117486;27;20451;-73
2021/12/30 13:21:48;;;;;;;6.57;4.40;;;;;;;;;;5119532;27;20871;-73
2021/12/30 13:24:34;;;;;;;5.10;3.10;;;;;;;;;;5113139;28;20474;-74
2021/12/30 13:27:03;;;;;;;2.93;2.50;;;;;;;;;;5109090;27;20558;-73
2021/12/30 13:29:32;;;;;;;3.43;1.37;;;;;;;;;;5113236;28;20468;-73
2021/12/30 13:32:09;;;;;;;2.30;1.50;;;;;;;;;;5107709;28;20447;-73
2021/12/30 13:34:58;;;;;;;1.67;0.87;;;;;;;;;;5112593;27;20547;-73
2021/12/30 13:40:21;;;;;;;2.60;1.27;;;;;;;;;;5117249;27;20481;-73
2021/12/30 13:42:54;;;;;;;4.50;2.77;;;;;;;;;;5119692;27;21195;-72
2021/12/30 13:45:43;;;;;;;2.57;1.50;;;;;;;;;;5118078;27;20462;-73
2021/12/30 13:48:14;;;;;;;3.10;1.80;;;;;;;;;;5119828;27;21115;-73
2021/12/30 13:50:46;;;;;;;2.73;1.73;;;;;;;;;;5102607;28;20996;-73
2021/12/30 13:53:17;;;;;;;2.10;1.30;;;;;;;;;;5104923;28;20472;-73
2021/12/30 13:55:49;;;;;;;1.93;1.20;;;;;;;;;;5118453;27;20909;-72
2021/12/30 13:58:24;;;;;;;2.60;1.47;;;;;;;;;;5117160;27;20545;-72
2021/12/30 14:01:05;;;;;;;1.87;1.10;;;;;;;;;;5117380;27;20446;-72
2021/12/30 14:03:35;;;;;;;1.40;0.87;;;;;;;;;;5118834;27;20489;-72
2021/12/30 14:06:07;;;;;;;3.17;1.70;;;;;;;;;;5119261;27;20524;-74
2021/12/30 14:08:45;;;;;;;2.40;1.80;;;;;;;;;;5117111;27;20450;-73
2021/12/30 14:11:37;;;;;;;3.30;1.93;;;;;;;;;;5118841;27;20527;-74
2021/12/30 14:14:06;;;;;;;1.83;0.97;;;;;;;;;;5119342;27;20809;-73
2021/12/30 14:16:38;;;;;;;2.40;1.53;;;;;;;;;;5118597;27;20481;-73
2021/12/30 14:19:06;;;;;;;1.47;1.03;;;;;;;;;;5118130;27;21114;-74
2021/12/30 14:21:41;;;;;;;2.77;1.93;;;;;;;;;;5118590;27;20455;-72
2021/12/30 14:24:19;;;;;;;2.30;1.33;;;;;;;;;;5116947;27;20457;-73
2021/12/30 14:26:49;;;;;;;1.97;1.57;;;;;;;;;;5103135;28;20452;-74
2021/12/30 14:29:18;;;;;;;4.50;2.50;;;;;;;;;;5098167;28;20543;-71
2021/12/30 14:31:48;;;;;;;5.90;4.10;;;;;;;;;;5117249;27;20541;-74
2021/12/30 14:34:21;;;;;;;3.13;1.73;;;;;;;;;;5112875;27;20764;-73
2021/12/30 14:36:59;;;;;;;2.37;1.70;;;;;;;;;;5112907;27;20450;-74
2021/12/30 14:39:45;;;;;;;2.30;1.53;;;;;;;;;;5107071;28;20540;-73
2021/12/30 14:42:35;;;;;;;2.60;1.50;;;;;;;;;;5066020;27;20877;-72
2021/12/30 14:45:18;;;;;;;2.50;1.80;;;;;;;;;;5053580;28;20457;-72
2021/12/30 14:47:54;;;;;;;2.13;1.30;;;;;;;;;;5113688;27;20974;-72
2021/12/30 14:50:27;;;;;;;1.93;1.20;;;;;;;;;;5116046;27;20435;-72
2021/12/30 14:53:00;;;;;;;3.20;2.20;;;;;;;;;;5126374;27;20464;-72
2021/12/30 14:56:06;;;;;;;1.83;1.13;;;;;;;;;;5132911;27;20965;-74
2021/12/30 14:58:38;;;;;;;1.53;0.97;;;;;;;;;;5110037;27;20451;-72
2021/12/30 15:01:12;;;;;;;5.17;3.30;;;;;;;;;;5116716;27;20486;-73